sensor_id;sensor_type;location;lat;lon;timestamp;temperature;humidity
15099;DHT22;33900;53.640;9.942;2022-09-09T00:03:50;18.10;93.00
15099;DHT22;33900;53.640;9.942;2022-09-09T00:06:23;18.10;92.90
15099;DHT22;33900;53.640;9.942;2022-09-09T00:14:02;18.20;93.00
15099;DHT22;33900;53.640;9.942;2022-09-09T00:16:33;18.20;93.10
15099;DHT22;33900;53.640;9.942;2022-09-09T00:21:47;18.20;93.20
15099;DHT22;33900;53.640;9.942;2022-09-09T00:26:48;18.20;93.10
15099;DHT22;33900;53.640;9.942;2022-09-09T00:31:42;18.20;93.20
15099;DHT22;33900;53.640;9.942;2022-09-09T00:34:11;18.20;93.10
15099;DHT22;33900;53.640;9.942;2022-09-09T00:36:38;18.20;93.10
15099;DHT22;33900;53.640;9.942;2022-09-09T00:39:04;18.20;93.10
15099;DHT22;33900;53.640;9.942;2022-09-09T00:41:35;18.30;93.10
15099;DHT22;33900;53.640;9.942;2022-09-09T00:49:36;18.30;93.40
15099;DHT22;33900;53.640;9.942;2022-09-09T00:57:31;18.30;93.00
15099;DHT22;33900;53.640;9.942;2022-09-09T01:06:12;18.20;92.90
15099;DHT22;33900;53.640;9.942;2022-09-09T01:08:05;18.20;92.90
15099;DHT22;33900;53.640;9.942;2022-09-09T01:13:15;18.20;92.90
15099;DHT22;33900;53.640;9.942;2022-09-09T01:15:42;18.20;92.90
15099;DHT22;33900;53.640;9.942;2022-09-09T01:18:13;18.20;93.00
15099;DHT22;33900;53.640;9.942;2022-09-09T01:23:27;18.20;92.90
15099;DHT22;33900;53.640;9.942;2022-09-09T01:26:36;18.20;93.00
15099;DHT22;33900;53.640;9.942;2022-09-09T01:29:08;18.20;93.00
15099;DHT22;33900;53.640;9.942;2022-09-09T01:31:41;18.20;93.00
15099;DHT22;33900;53.640;9.942;2022-09-09T01:34:13;18.20;93.00
15099;DHT22;33900;53.640;9.942;2022-09-09T01:36:42;18.20;92.90
15099;DHT22;33900;53.640;9.942;2022-09-09T01:39:08;18.20;92.90
15099;DHT22;33900;53.640;9.942;2022-09-09T01:41:35;18.20;93.00
15099;DHT22;33900;53.640;9.942;2022-09-09T01:44:04;18.20;93.00
15099;DHT22;33900;53.640;9.942;2022-09-09T01:46:33;18.20;93.00
15099;DHT22;33900;53.640;9.942;2022-09-09T01:49:00;18.20;93.00
15099;DHT22;33900;53.640;9.942;2022-09-09T01:51:27;18.20;92.90
15099;DHT22;33900;53.640;9.942;2022-09-09T01:53:56;18.20;92.90
15099;DHT22;33900;53.640;9.942;2022-09-09T01:56:40;18.20;93.00
15099;DHT22;33900;53.640;9.942;2022-09-09T01:59:17;18.20;93.00
15099;DHT22;33900;53.640;9.942;2022-09-09T02:01:57;18.20;93.00
15099;DHT22;33900;53.640;9.942;2022-09-09T02:04:38;18.10;93.00
15099;DHT22;33900;53.640;9.942;2022-09-09T02:10:28;18.10;93.00
15099;DHT22;33900;53.640;9.942;2022-09-09T02:13:00;18.10;93.00
15099;DHT22;33900;53.640;9.942;2022-09-09T02:18:09;18.10;93.10
15099;DHT22;33900;53.640;9.942;2022-09-09T02:20:36;18.10;93.10
15099;DHT22;33900;53.640;9.942;2022-09-09T02:23:04;18.10;93.00
15099;DHT22;33900;53.640;9.942;2022-09-09T02:25:30;18.10;93.00
15099;DHT22;33900;53.640;9.942;2022-09-09T02:28:07;18.10;93.00
15099;DHT22;33900;53.640;9.942;2022-09-09T02:30:33;18.10;93.00
15099;DHT22;33900;53.640;9.942;2022-09-09T02:33:05;18.10;93.00
15099;DHT22;33900;53.640;9.942;2022-09-09T02:35:42;18.10;93.00
15099;DHT22;33900;53.640;9.942;2022-09-09T02:38:12;18.10;93.00
15099;DHT22;33900;53.640;9.942;2022-09-09T02:40:43;18.10;93.00
15099;DHT22;33900;53.640;9.942;2022-09-09T02:43:13;18.10;93.00
15099;DHT22;33900;53.640;9.942;2022-09-09T02:45:46;18.10;93.00
15099;DHT22;33900;53.640;9.942;2022-09-09T02:48:36;18.10;93.00
15099;DHT22;33900;53.640;9.942;2022-09-09T02:51:30;18.10;93.00
15099;DHT22;33900;53.640;9.942;2022-09-09T02:54:04;18.00;93.00
15099;DHT22;33900;53.640;9.942;2022-09-09T02:56:35;18.00;93.30
15099;DHT22;33900;53.640;9.942;2022-09-09T02:59:07;18.00;93.00
15099;DHT22;33900;53.640;9.942;2022-09-09T03:01:35;18.00;93.00
15099;DHT22;33900;53.640;9.942;2022-09-09T03:04:02;18.00;93.00
15099;DHT22;33900;53.640;9.942;2022-09-09T03:06:29;17.90;93.00
15099;DHT22;33900;53.640;9.942;2022-09-09T03:09:04;17.90;93.00
15099;DHT22;33900;53.640;9.942;2022-09-09T03:11:32;17.90;93.00
15099;DHT22;33900;53.640;9.942;2022-09-09T03:13:58;17.90;92.90
15099;DHT22;33900;53.640;9.942;2022-09-09T03:16:27;17.90;92.90
15099;DHT22;33900;53.640;9.942;2022-09-09T03:18:54;17.90;92.90
15099;DHT22;33900;53.640;9.942;2022-09-09T03:21:19;17.90;92.90
15099;DHT22;33900;53.640;9.942;2022-09-09T03:23:45;17.90;92.90
15099;DHT22;33900;53.640;9.942;2022-09-09T03:26:14;17.90;92.90
15099;DHT22;33900;53.640;9.942;2022-09-09T03:28:45;17.90;92.90
15099;DHT22;33900;53.640;9.942;2022-09-09T03:31:14;17.80;92.90
15099;DHT22;33900;53.640;9.942;2022-09-09T03:33:44;17.80;92.90
15099;DHT22;33900;53.640;9.942;2022-09-09T03:36:15;17.80;92.90
15099;DHT22;33900;53.640;9.942;2022-09-09T03:38:44;17.80;92.90
15099;DHT22;33900;53.640;9.942;2022-09-09T03:41:11;17.80;92.90
15099;DHT22;33900;53.640;9.942;2022-09-09T03:43:38;17.80;92.90
15099;DHT22;33900;53.640;9.942;2022-09-09T03:46:05;17.80;92.90
15099;DHT22;33900;53.640;9.942;2022-09-09T03:48:31;17.70;92.90
15099;DHT22;33900;53.640;9.942;2022-09-09T03:50:58;17.70;92.80
15099;DHT22;33900;53.640;9.942;2022-09-09T03:53:26;17.70;92.80
15099;DHT22;33900;53.640;9.942;2022-09-09T03:55:53;17.70;92.80
15099;DHT22;33900;53.640;9.942;2022-09-09T03:58:26;17.60;92.80
15099;DHT22;33900;53.640;9.942;2022-09-09T04:00:57;17.60;92.70
15099;DHT22;33900;53.640;9.942;2022-09-09T04:03:23;17.60;92.80
15099;DHT22;33900;53.640;9.942;2022-09-09T04:05:51;17.60;92.80
15099;DHT22;33900;53.640;9.942;2022-09-09T04:08:17;17.60;92.80
15099;DHT22;33900;53.640;9.942;2022-09-09T04:10:49;17.60;92.80
15099;DHT22;33900;53.640;9.942;2022-09-09T04:13:17;17.60;92.70
15099;DHT22;33900;53.640;9.942;2022-09-09T04:15:44;17.60;92.70
15099;DHT22;33900;53.640;9.942;2022-09-09T04:18:16;17.60;92.70
15099;DHT22;33900;53.640;9.942;2022-09-09T04:20:45;17.50;92.70
15099;DHT22;33900;53.640;9.942;2022-09-09T04:23:11;17.50;92.70
15099;DHT22;33900;53.640;9.942;2022-09-09T04:25:37;17.50;92.70
15099;DHT22;33900;53.640;9.942;2022-09-09T04:28:03;17.50;92.80
15099;DHT22;33900;53.640;9.942;2022-09-09T04:30:30;17.40;92.70
15099;DHT22;33900;53.640;9.942;2022-09-09T04:32:56;17.50;92.80
15099;DHT22;33900;53.640;9.942;2022-09-09T04:35:22;17.40;92.70
15099;DHT22;33900;53.640;9.942;2022-09-09T04:37:50;17.50;92.80
15099;DHT22;33900;53.640;9.942;2022-09-09T04:40:16;17.50;93.20
15099;DHT22;33900;53.640;9.942;2022-09-09T04:42:42;17.40;92.80
15099;DHT22;33900;53.640;9.942;2022-09-09T04:45:10;17.40;92.80
15099;DHT22;33900;53.640;9.942;2022-09-09T04:47:37;17.40;92.70
15099;DHT22;33900;53.640;9.942;2022-09-09T04:50:02;17.40;92.80
15099;DHT22;33900;53.640;9.942;2022-09-09T04:52:29;17.40;92.80
15099;DHT22;33900;53.640;9.942;2022-09-09T04:54:55;17.40;92.80
15099;DHT22;33900;53.640;9.942;2022-09-09T04:57:21;17.40;92.80
15099;DHT22;33900;53.640;9.942;2022-09-09T04:59:47;17.40;92.80
15099;DHT22;33900;53.640;9.942;2022-09-09T05:02:14;17.40;92.80
15099;DHT22;33900;53.640;9.942;2022-09-09T05:04:40;17.50;92.90
15099;DHT22;33900;53.640;9.942;2022-09-09T05:07:06;17.50;92.90
15099;DHT22;33900;53.640;9.942;2022-09-09T05:09:32;17.50;92.90
15099;DHT22;33900;53.640;9.942;2022-09-09T05:12:00;17.40;92.90
15099;DHT22;33900;53.640;9.942;2022-09-09T05:14:30;17.40;92.90
15099;DHT22;33900;53.640;9.942;2022-09-09T05:16:56;17.50;92.90
15099;DHT22;33900;53.640;9.942;2022-09-09T05:19:23;17.50;92.90
15099;DHT22;33900;53.640;9.942;2022-09-09T05:21:51;17.40;92.90
15099;DHT22;33900;53.640;9.942;2022-09-09T05:24:22;17.40;92.80
15099;DHT22;33900;53.640;9.942;2022-09-09T05:26:53;17.40;92.90
15099;DHT22;33900;53.640;9.942;2022-09-09T05:29:20;17.40;92.90
15099;DHT22;33900;53.640;9.942;2022-09-09T05:31:46;17.40;92.90
15099;DHT22;33900;53.640;9.942;2022-09-09T05:34:15;17.40;92.90
15099;DHT22;33900;53.640;9.942;2022-09-09T05:36:40;17.40;92.90
15099;DHT22;33900;53.640;9.942;2022-09-09T05:39:07;17.40;92.90
15099;DHT22;33900;53.640;9.942;2022-09-09T05:41:33;17.40;92.90
15099;DHT22;33900;53.640;9.942;2022-09-09T05:44:02;17.40;93.00
15099;DHT22;33900;53.640;9.942;2022-09-09T05:46:30;17.40;92.90
15099;DHT22;33900;53.640;9.942;2022-09-09T05:48:56;17.50;93.00
15099;DHT22;33900;53.640;9.942;2022-09-09T05:51:29;17.40;93.00
15099;DHT22;33900;53.640;9.942;2022-09-09T05:54:03;17.40;93.00
15099;DHT22;33900;53.640;9.942;2022-09-09T05:56:32;17.50;93.10
15099;DHT22;33900;53.640;9.942;2022-09-09T05:58:59;17.50;93.10
15099;DHT22;33900;53.640;9.942;2022-09-09T06:01:27;17.50;93.10
15099;DHT22;33900;53.640;9.942;2022-09-09T06:03:54;17.50;93.10
15099;DHT22;33900;53.640;9.942;2022-09-09T06:06:23;17.50;93.10
15099;DHT22;33900;53.640;9.942;2022-09-09T06:08:50;17.50;93.10
15099;DHT22;33900;53.640;9.942;2022-09-09T06:11:18;17.50;93.10
15099;DHT22;33900;53.640;9.942;2022-09-09T06:13:45;17.60;93.10
15099;DHT22;33900;53.640;9.942;2022-09-09T06:16:12;17.60;93.10
15099;DHT22;33900;53.640;9.942;2022-09-09T06:18:39;17.60;93.20
15099;DHT22;33900;53.640;9.942;2022-09-09T06:21:06;17.70;93.20
15099;DHT22;33900;53.640;9.942;2022-09-09T06:23:32;17.70;93.20
15099;DHT22;33900;53.640;9.942;2022-09-09T06:26:04;17.70;93.20
15099;DHT22;33900;53.640;9.942;2022-09-09T06:28:33;17.80;93.20
15099;DHT22;33900;53.640;9.942;2022-09-09T06:31:02;17.80;93.20
15099;DHT22;33900;53.640;9.942;2022-09-09T06:33:30;17.80;93.20
15099;DHT22;33900;53.640;9.942;2022-09-09T06:35:57;17.80;93.20
15099;DHT22;33900;53.640;9.942;2022-09-09T06:38:23;17.90;93.20
15099;DHT22;33900;53.640;9.942;2022-09-09T06:40:53;17.90;93.20
15099;DHT22;33900;53.640;9.942;2022-09-09T06:43:20;17.90;93.30
15099;DHT22;33900;53.640;9.942;2022-09-09T06:46:03;17.90;93.20
15099;DHT22;33900;53.640;9.942;2022-09-09T06:48:30;17.90;93.20
15099;DHT22;33900;53.640;9.942;2022-09-09T06:53:29;18.00;93.20
15099;DHT22;33900;53.640;9.942;2022-09-09T06:55:56;18.00;93.20
15099;DHT22;33900;53.640;9.942;2022-09-09T06:58:22;18.00;93.20
15099;DHT22;33900;53.640;9.942;2022-09-09T07:00:48;18.10;93.30
15099;DHT22;33900;53.640;9.942;2022-09-09T07:03:18;18.10;93.30
15099;DHT22;33900;53.640;9.942;2022-09-09T07:05:54;18.20;93.30
15099;DHT22;33900;53.640;9.942;2022-09-09T07:08:21;18.20;93.30
15099;DHT22;33900;53.640;9.942;2022-09-09T07:10:47;18.30;93.30
15099;DHT22;33900;53.640;9.942;2022-09-09T07:13:15;18.30;93.30
15099;DHT22;33900;53.640;9.942;2022-09-09T07:15:41;18.30;93.40
15099;DHT22;33900;53.640;9.942;2022-09-09T07:18:07;18.40;93.70
15099;DHT22;33900;53.640;9.942;2022-09-09T07:20:35;18.40;93.30
15099;DHT22;33900;53.640;9.942;2022-09-09T07:23:01;18.40;93.30
15099;DHT22;33900;53.640;9.942;2022-09-09T07:25:28;18.50;93.30
15099;DHT22;33900;53.640;9.942;2022-09-09T07:27:56;18.50;93.30
15099;DHT22;33900;53.640;9.942;2022-09-09T07:30:22;18.50;93.40
15099;DHT22;33900;53.640;9.942;2022-09-09T07:32:50;18.60;93.40
15099;DHT22;33900;53.640;9.942;2022-09-09T07:35:16;18.60;93.40
15099;DHT22;33900;53.640;9.942;2022-09-09T07:37:42;18.60;93.40
15099;DHT22;33900;53.640;9.942;2022-09-09T07:40:08;18.60;93.30
15099;DHT22;33900;53.640;9.942;2022-09-09T07:42:34;18.70;93.30
15099;DHT22;33900;53.640;9.942;2022-09-09T07:44:59;18.70;93.30
15099;DHT22;33900;53.640;9.942;2022-09-09T07:47:25;18.70;93.30
15099;DHT22;33900;53.640;9.942;2022-09-09T07:49:52;18.70;93.20
15099;DHT22;33900;53.640;9.942;2022-09-09T07:52:25;18.70;93.20
15099;DHT22;33900;53.640;9.942;2022-09-09T07:54:55;18.70;93.20
15099;DHT22;33900;53.640;9.942;2022-09-09T07:57:22;18.70;93.10
15099;DHT22;33900;53.640;9.942;2022-09-09T07:59:50;18.80;93.10
15099;DHT22;33900;53.640;9.942;2022-09-09T08:02:16;18.80;93.10
15099;DHT22;33900;53.640;9.942;2022-09-09T08:04:43;18.80;93.10
15099;DHT22;33900;53.640;9.942;2022-09-09T08:07:09;18.80;93.10
15099;DHT22;33900;53.640;9.942;2022-09-09T08:09:45;18.90;93.10
15099;DHT22;33900;53.640;9.942;2022-09-09T08:12:18;18.90;93.10
15099;DHT22;33900;53.640;9.942;2022-09-09T08:14:44;18.90;93.10
15099;DHT22;33900;53.640;9.942;2022-09-09T08:17:10;18.90;93.10
15099;DHT22;33900;53.640;9.942;2022-09-09T08:19:37;18.90;93.10
15099;DHT22;33900;53.640;9.942;2022-09-09T08:22:07;18.90;93.10
15099;DHT22;33900;53.640;9.942;2022-09-09T08:24:35;18.90;93.10
15099;DHT22;33900;53.640;9.942;2022-09-09T08:27:01;19.00;93.10
15099;DHT22;33900;53.640;9.942;2022-09-09T08:29:28;19.00;93.10
15099;DHT22;33900;53.640;9.942;2022-09-09T08:31:58;19.10;93.10
15099;DHT22;33900;53.640;9.942;2022-09-09T08:34:27;19.10;93.00
15099;DHT22;33900;53.640;9.942;2022-09-09T08:36:54;19.10;93.00
15099;DHT22;33900;53.640;9.942;2022-09-09T08:39:27;19.20;93.00
15099;DHT22;33900;53.640;9.942;2022-09-09T08:41:59;19.20;93.00
15099;DHT22;33900;53.640;9.942;2022-09-09T08:52:39;19.40;92.90
15099;DHT22;33900;53.640;9.942;2022-09-09T08:57:35;19.50;92.80
15099;DHT22;33900;53.640;9.942;2022-09-09T09:00:09;19.40;92.70
15099;DHT22;33900;53.640;9.942;2022-09-09T09:02:55;19.50;92.70
15099;DHT22;33900;53.640;9.942;2022-09-09T09:05:46;19.60;92.70
15099;DHT22;33900;53.640;9.942;2022-09-09T09:08:26;19.60;92.60
15099;DHT22;33900;53.640;9.942;2022-09-09T09:10:54;19.70;92.60
15099;DHT22;33900;53.640;9.942;2022-09-09T09:13:33;19.70;92.60
15099;DHT22;33900;53.640;9.942;2022-09-09T09:16:02;19.70;92.60
15099;DHT22;33900;53.640;9.942;2022-09-09T09:18:33;19.80;92.60
15099;DHT22;33900;53.640;9.942;2022-09-09T09:21:20;19.80;92.60
15099;DHT22;33900;53.640;9.942;2022-09-09T09:23:59;19.90;92.60
15099;DHT22;33900;53.640;9.942;2022-09-09T09:26:34;19.90;92.50
15099;DHT22;33900;53.640;9.942;2022-09-09T09:29:09;19.90;92.40
15099;DHT22;33900;53.640;9.942;2022-09-09T09:31:36;19.90;92.30
15099;DHT22;33900;53.640;9.942;2022-09-09T09:34:02;19.90;92.30
15099;DHT22;33900;53.640;9.942;2022-09-09T09:36:34;20.00;92.20
15099;DHT22;33900;53.640;9.942;2022-09-09T09:39:06;20.00;92.20
15099;DHT22;33900;53.640;9.942;2022-09-09T09:41:38;20.00;92.10
15099;DHT22;33900;53.640;9.942;2022-09-09T09:44:18;20.00;91.90
15099;DHT22;33900;53.640;9.942;2022-09-09T09:46:49;20.00;91.90
15099;DHT22;33900;53.640;9.942;2022-09-09T09:49:15;20.00;91.90
15099;DHT22;33900;53.640;9.942;2022-09-09T09:51:43;20.00;91.80
15099;DHT22;33900;53.640;9.942;2022-09-09T09:56:36;20.10;91.80
15099;DHT22;33900;53.640;9.942;2022-09-09T09:59:04;20.10;91.80
15099;DHT22;33900;53.640;9.942;2022-09-09T10:01:34;20.10;91.70
15099;DHT22;33900;53.640;9.942;2022-09-09T10:04:18;20.20;91.70
15099;DHT22;33900;53.640;9.942;2022-09-09T10:06:47;20.20;91.60
15099;DHT22;33900;53.640;9.942;2022-09-09T10:11:57;20.30;91.50
15099;DHT22;33900;53.640;9.942;2022-09-09T10:14:40;20.30;91.40
15099;DHT22;33900;53.640;9.942;2022-09-09T10:17:25;20.40;91.40
15099;DHT22;33900;53.640;9.942;2022-09-09T10:19:57;20.40;91.30
15099;DHT22;33900;53.640;9.942;2022-09-09T10:22:27;20.50;91.20
15099;DHT22;33900;53.640;9.942;2022-09-09T10:30:15;20.50;91.00
15099;DHT22;33900;53.640;9.942;2022-09-09T10:32:46;20.50;91.00
15099;DHT22;33900;53.640;9.942;2022-09-09T10:37:45;20.60;90.70
15099;DHT22;33900;53.640;9.942;2022-09-09T10:40:30;20.60;90.60
15099;DHT22;33900;53.640;9.942;2022-09-09T10:43:03;20.60;90.60
15099;DHT22;33900;53.640;9.942;2022-09-09T10:45:52;20.60;90.60
15099;DHT22;33900;53.640;9.942;2022-09-09T10:51:11;20.70;90.50
15099;DHT22;33900;53.640;9.942;2022-09-09T10:53:44;20.70;90.50
15099;DHT22;33900;53.640;9.942;2022-09-09T10:56:13;20.70;90.50
15099;DHT22;33900;53.640;9.942;2022-09-09T10:58:42;20.80;90.30
15099;DHT22;33900;53.640;9.942;2022-09-09T11:01:12;20.80;90.30
15099;DHT22;33900;53.640;9.942;2022-09-09T11:03:42;20.90;90.20
15099;DHT22;33900;53.640;9.942;2022-09-09T11:06:16;20.90;90.20
15099;DHT22;33900;53.640;9.942;2022-09-09T11:08:44;20.90;90.00
15099;DHT22;33900;53.640;9.942;2022-09-09T11:13:40;21.00;89.80
15099;DHT22;33900;53.640;9.942;2022-09-09T11:16:28;21.00;89.90
15099;DHT22;33900;53.640;9.942;2022-09-09T11:18:57;21.10;89.80
15099;DHT22;33900;53.640;9.942;2022-09-09T11:21:43;21.10;89.70
15099;DHT22;33900;53.640;9.942;2022-09-09T11:24:26;21.20;89.80
15099;DHT22;33900;53.640;9.942;2022-09-09T11:26:57;21.30;89.60
15099;DHT22;33900;53.640;9.942;2022-09-09T11:34:54;21.40;89.10
15099;DHT22;33900;53.640;9.942;2022-09-09T11:40:01;21.40;89.30
15099;DHT22;33900;53.640;9.942;2022-09-09T11:42:33;21.50;89.10
15099;DHT22;33900;53.640;9.942;2022-09-09T11:45:08;21.50;89.00
15099;DHT22;33900;53.640;9.942;2022-09-09T11:47:34;21.50;88.90
15099;DHT22;33900;53.640;9.942;2022-09-09T11:50:07;21.60;88.70
15099;DHT22;33900;53.640;9.942;2022-09-09T11:52:38;21.60;88.30
15099;DHT22;33900;53.640;9.942;2022-09-09T11:55:19;21.60;88.30
15099;DHT22;33900;53.640;9.942;2022-09-09T11:57:49;21.70;88.60
15099;DHT22;33900;53.640;9.942;2022-09-09T12:00:36;22.00;88.40
15099;DHT22;33900;53.640;9.942;2022-09-09T12:03:06;22.00;87.70
15099;DHT22;33900;53.640;9.942;2022-09-09T12:05:51;22.20;87.70
15099;DHT22;33900;53.640;9.942;2022-09-09T12:08:20;22.30;87.50
15099;DHT22;33900;53.640;9.942;2022-09-09T12:10:56;22.50;87.00
15099;DHT22;33900;53.640;9.942;2022-09-09T12:13:24;22.60;86.70
15099;DHT22;33900;53.640;9.942;2022-09-09T12:15:50;22.70;86.50
15099;DHT22;33900;53.640;9.942;2022-09-09T12:18:25;22.70;86.10
15099;DHT22;33900;53.640;9.942;2022-09-09T12:31:39;22.70;85.40
15099;DHT22;33900;53.640;9.942;2022-09-09T12:34:12;22.60;85.40
15099;DHT22;33900;53.640;9.942;2022-09-09T12:36:38;22.60;85.40
15099;DHT22;33900;53.640;9.942;2022-09-09T12:39:10;22.60;85.40
15099;DHT22;33900;53.640;9.942;2022-09-09T12:41:41;22.50;85.40
15099;DHT22;33900;53.640;9.942;2022-09-09T12:44:08;22.50;85.50
15099;DHT22;33900;53.640;9.942;2022-09-09T12:46:44;22.50;85.60
15099;DHT22;33900;53.640;9.942;2022-09-09T12:49:29;22.40;85.60
15099;DHT22;33900;53.640;9.942;2022-09-09T12:52:02;22.40;85.60
15099;DHT22;33900;53.640;9.942;2022-09-09T12:54:31;22.40;85.60
15099;DHT22;33900;53.640;9.942;2022-09-09T12:56:58;22.40;85.80
15099;DHT22;33900;53.640;9.942;2022-09-09T12:59:25;22.40;85.70
15099;DHT22;33900;53.640;9.942;2022-09-09T13:01:57;22.40;85.60
15099;DHT22;33900;53.640;9.942;2022-09-09T13:04:24;22.30;85.60
15099;DHT22;33900;53.640;9.942;2022-09-09T13:06:49;22.30;85.60
15099;DHT22;33900;53.640;9.942;2022-09-09T13:09:17;22.30;85.60
15099;DHT22;33900;53.640;9.942;2022-09-09T13:11:45;22.20;85.60
15099;DHT22;33900;53.640;9.942;2022-09-09T13:14:30;22.20;85.70
15099;DHT22;33900;53.640;9.942;2022-09-09T13:16:58;22.10;85.70
15099;DHT22;33900;53.640;9.942;2022-09-09T13:19:38;22.00;85.70
15099;DHT22;33900;53.640;9.942;2022-09-09T13:29:54;21.70;89.20
15099;DHT22;33900;53.640;9.942;2022-09-09T13:32:21;21.50;89.30
15099;DHT22;33900;53.640;9.942;2022-09-09T13:34:54;21.30;89.40
15099;DHT22;33900;53.640;9.942;2022-09-09T13:37:26;21.10;88.90
15099;DHT22;33900;53.640;9.942;2022-09-09T13:39:55;20.90;88.80
15099;DHT22;33900;53.640;9.942;2022-09-09T13:42:30;20.70;89.10
15099;DHT22;33900;53.640;9.942;2022-09-09T13:44:57;20.60;88.90
15099;DHT22;33900;53.640;9.942;2022-09-09T13:47:27;20.50;89.30
15099;DHT22;33900;53.640;9.942;2022-09-09T13:49:54;20.30;89.60
15099;DHT22;33900;53.640;9.942;2022-09-09T13:52:20;20.20;89.80
15099;DHT22;33900;53.640;9.942;2022-09-09T13:54:51;20.10;89.80
15099;DHT22;33900;53.640;9.942;2022-09-09T13:57:18;20.00;89.70
15099;DHT22;33900;53.640;9.942;2022-09-09T13:59:45;19.90;90.00
15099;DHT22;33900;53.640;9.942;2022-09-09T14:02:11;19.90;90.10
15099;DHT22;33900;53.640;9.942;2022-09-09T14:04:40;19.80;90.10
15099;DHT22;33900;53.640;9.942;2022-09-09T14:07:15;19.70;90.10
15099;DHT22;33900;53.640;9.942;2022-09-09T14:09:41;19.70;90.30
15099;DHT22;33900;53.640;9.942;2022-09-09T14:12:11;19.60;90.40
15099;DHT22;33900;53.640;9.942;2022-09-09T14:14:37;19.60;90.60
15099;DHT22;33900;53.640;9.942;2022-09-09T14:17:03;19.50;90.70
15099;DHT22;33900;53.640;9.942;2022-09-09T14:19:30;19.50;90.80
15099;DHT22;33900;53.640;9.942;2022-09-09T14:21:57;19.50;91.00
15099;DHT22;33900;53.640;9.942;2022-09-09T14:24:22;19.50;91.00
15099;DHT22;33900;53.640;9.942;2022-09-09T14:26:49;19.50;91.10
15099;DHT22;33900;53.640;9.942;2022-09-09T14:29:14;19.40;91.10
15099;DHT22;33900;53.640;9.942;2022-09-09T14:31:40;19.50;91.20
15099;DHT22;33900;53.640;9.942;2022-09-09T14:34:06;19.40;91.30
15099;DHT22;33900;53.640;9.942;2022-09-09T14:36:32;19.50;91.30
15099;DHT22;33900;53.640;9.942;2022-09-09T14:39:19;19.40;91.40
15099;DHT22;33900;53.640;9.942;2022-09-09T14:41:45;19.50;91.50
15099;DHT22;33900;53.640;9.942;2022-09-09T14:44:25;19.50;91.50
15099;DHT22;33900;53.640;9.942;2022-09-09T14:46:52;19.50;91.50
15099;DHT22;33900;53.640;9.942;2022-09-09T14:49:18;19.40;91.50
15099;DHT22;33900;53.640;9.942;2022-09-09T14:51:44;19.50;91.70
15099;DHT22;33900;53.640;9.942;2022-09-09T14:54:15;19.50;91.80
15099;DHT22;33900;53.640;9.942;2022-09-09T14:56:59;19.50;91.90
15099;DHT22;33900;53.640;9.942;2022-09-09T14:59:25;19.50;91.90
15099;DHT22;33900;53.640;9.942;2022-09-09T15:01:52;19.50;91.90
15099;DHT22;33900;53.640;9.942;2022-09-09T15:04:20;19.50;91.90
15099;DHT22;33900;53.640;9.942;2022-09-09T15:06:55;19.50;92.10
15099;DHT22;33900;53.640;9.942;2022-09-09T15:09:39;19.50;92.10
15099;DHT22;33900;53.640;9.942;2022-09-09T15:12:20;19.50;92.10
15099;DHT22;33900;53.640;9.942;2022-09-09T15:15:10;19.50;92.20
15099;DHT22;33900;53.640;9.942;2022-09-09T15:17:45;19.50;92.30
15099;DHT22;33900;53.640;9.942;2022-09-09T15:20:24;19.50;92.40
15099;DHT22;33900;53.640;9.942;2022-09-09T15:22:52;19.50;92.40
15099;DHT22;33900;53.640;9.942;2022-09-09T15:25:18;19.50;92.40
15099;DHT22;33900;53.640;9.942;2022-09-09T15:28:02;19.50;92.60
15099;DHT22;33900;53.640;9.942;2022-09-09T15:30:34;19.50;92.50
15099;DHT22;33900;53.640;9.942;2022-09-09T15:33:12;19.50;92.50
15099;DHT22;33900;53.640;9.942;2022-09-09T15:35:47;19.50;92.60
15099;DHT22;33900;53.640;9.942;2022-09-09T15:38:17;19.50;92.60
15099;DHT22;33900;53.640;9.942;2022-09-09T15:41:09;19.40;92.70
15099;DHT22;33900;53.640;9.942;2022-09-09T15:43:34;19.40;92.70
15099;DHT22;33900;53.640;9.942;2022-09-09T15:46:02;19.40;92.70
15099;DHT22;33900;53.640;9.942;2022-09-09T15:48:33;19.40;92.80
15099;DHT22;33900;53.640;9.942;2022-09-09T15:51:03;19.50;92.90
15099;DHT22;33900;53.640;9.942;2022-09-09T15:53:32;19.50;92.90
15099;DHT22;33900;53.640;9.942;2022-09-09T15:55:58;19.50;92.90
15099;DHT22;33900;53.640;9.942;2022-09-09T15:58:24;19.50;93.00
15099;DHT22;33900;53.640;9.942;2022-09-09T16:01:03;19.50;92.90
15099;DHT22;33900;53.640;9.942;2022-09-09T16:03:36;19.50;93.00
15099;DHT22;33900;53.640;9.942;2022-09-09T16:06:04;19.50;92.90
15099;DHT22;33900;53.640;9.942;2022-09-09T16:08:37;19.60;92.90
15099;DHT22;33900;53.640;9.942;2022-09-09T16:11:25;19.60;92.90
15099;DHT22;33900;53.640;9.942;2022-09-09T16:14:01;19.60;93.00
15099;DHT22;33900;53.640;9.942;2022-09-09T16:16:28;19.60;92.90
15099;DHT22;33900;53.640;9.942;2022-09-09T16:18:55;19.70;93.30
15099;DHT22;33900;53.640;9.942;2022-09-09T16:21:23;19.70;93.00
15099;DHT22;33900;53.640;9.942;2022-09-09T16:23:50;19.70;93.00
15099;DHT22;33900;53.640;9.942;2022-09-09T16:26:16;19.70;92.90
15099;DHT22;33900;53.640;9.942;2022-09-09T16:28:51;19.70;93.00
15099;DHT22;33900;53.640;9.942;2022-09-09T16:31:20;19.70;93.00
15099;DHT22;33900;53.640;9.942;2022-09-09T16:33:47;19.80;93.00
15099;DHT22;33900;53.640;9.942;2022-09-09T16:36:16;19.80;93.00
15099;DHT22;33900;53.640;9.942;2022-09-09T16:38:42;19.80;93.00
15099;DHT22;33900;53.640;9.942;2022-09-09T16:41:08;19.80;93.10
15099;DHT22;33900;53.640;9.942;2022-09-09T16:43:34;19.80;93.10
15099;DHT22;33900;53.640;9.942;2022-09-09T16:46:02;19.80;93.10
15099;DHT22;33900;53.640;9.942;2022-09-09T16:48:31;19.80;93.10
15099;DHT22;33900;53.640;9.942;2022-09-09T16:51:05;19.80;93.10
15099;DHT22;33900;53.640;9.942;2022-09-09T16:53:31;19.80;93.10
15099;DHT22;33900;53.640;9.942;2022-09-09T16:55:57;19.80;93.10
15099;DHT22;33900;53.640;9.942;2022-09-09T16:58:23;19.80;93.10
15099;DHT22;33900;53.640;9.942;2022-09-09T17:00:49;19.70;93.10
15099;DHT22;33900;53.640;9.942;2022-09-09T17:03:16;19.70;93.10
15099;DHT22;33900;53.640;9.942;2022-09-09T17:05:42;19.70;93.10
15099;DHT22;33900;53.640;9.942;2022-09-09T17:08:09;19.70;93.40
15099;DHT22;33900;53.640;9.942;2022-09-09T17:10:39;19.70;93.10
15099;DHT22;33900;53.640;9.942;2022-09-09T17:13:05;19.70;93.10
15099;DHT22;33900;53.640;9.942;2022-09-09T17:15:31;19.70;93.20
15099;DHT22;33900;53.640;9.942;2022-09-09T17:17:57;19.70;93.20
15099;DHT22;33900;53.640;9.942;2022-09-09T17:20:23;19.60;93.20
15099;DHT22;33900;53.640;9.942;2022-09-09T17:22:48;19.60;93.30
15099;DHT22;33900;53.640;9.942;2022-09-09T17:25:14;19.60;93.40
15099;DHT22;33900;53.640;9.942;2022-09-09T17:27:40;19.60;93.40
15099;DHT22;33900;53.640;9.942;2022-09-09T17:30:06;19.60;93.40